Time;durP1;ratioP1;P1;durP2;ratioP2;P2;SDS_P1;SDS_P2;PMS_P1;PMS_P2;Temp;Humidity;BMP_temperature;BMP_pressure;BME280_temperature;BME280_humidity;BME280_pressure;Samples;Min_cycle;Max_cycle;Signal;HPM_P1;HPM_P2
2022/01/14 00:02:54;;;;;;;31.40;20.02;;;;;;;;;;10361360;28;20484;-49
2022/01/14 00:07:54;;;;;;;35.13;21.58;;;;;;;;;;10360812;28;20484;-55
2022/01/14 00:12:57;;;;;;;31.67;20.40;;;;;;;;;;10360627;28;20437;-53
2022/01/14 00:17:55;;;;;;;35.40;20.33;;;;;;;;;;10361339;28;20124;-55
2022/01/14 00:22:55;;;;;;;33.03;19.92;;;;;;;;;;10360181;28;20440;-55
2022/01/14 00:33:09;;;;;;;31.52;18.55;;;;;;;;;;10360969;28;20057;-53
2022/01/14 00:38:10;;;;;;;35.38;19.83;;;;;;;;;;10360092;28;20040;-55
2022/01/14 00:43:09;;;;;;;32.47;20.35;;;;;;;;;;10360489;28;20505;-54
2022/01/14 00:48:07;;;;;;;36.88;20.00;;;;;;;;;;10359115;28;20524;-55
2022/01/14 00:53:06;;;;;;;30.58;19.52;;;;;;;;;;10359424;28;20489;-56
2022/01/14 01:03:21;;;;;;;31.60;19.80;;;;;;;;;;10359195;28;20071;-56
2022/01/14 01:08:23;;;;;;;32.30;19.77;;;;;;;;;;10359062;28;20075;-55
2022/01/14 01:13:29;;;;;;;36.05;21.35;;;;;;;;;;10359265;28;20055;-57
2022/01/14 01:18:27;;;;;;;35.20;19.70;;;;;;;;;;10359077;28;20056;-56
2022/01/14 01:23:26;;;;;;;30.25;19.58;;;;;;;;;;10358391;28;20048;-55
2022/01/14 01:28:41;;;;;;;30.63;20.63;;;;;;;;;;10357265;28;20066;-55
2022/01/14 01:33:40;;;;;;;27.98;19.02;;;;;;;;;;10358100;28;20496;-56
2022/01/14 01:38:38;;;;;;;31.33;18.67;;;;;;;;;;10358083;28;20068;-54
2022/01/14 01:43:38;;;;;;;29.13;19.48;;;;;;;;;;10358092;28;20055;-55
2022/01/14 01:48:36;;;;;;;33.70;18.35;;;;;;;;;;10357387;28;20084;-51
2022/01/14 01:53:34;;;;;;;29.92;19.73;;;;;;;;;;10357590;28;20071;-55
2022/01/14 01:58:34;;;;;;;31.75;18.52;;;;;;;;;;10357942;28;20075;-55
2022/01/14 02:03:34;;;;;;;30.65;18.38;;;;;;;;;;10357457;28;20067;-54
2022/01/14 02:08:33;;;;;;;45.63;22.02;;;;;;;;;;10357558;28;20087;-55
2022/01/14 02:13:32;;;;;;;24.13;17.13;;;;;;;;;;10357415;28;20497;-54
2022/01/14 02:18:38;;;;;;;31.83;18.42;;;;;;;;;;10357367;28;20048;-55
2022/01/14 02:23:41;;;;;;;29.58;17.25;;;;;;;;;;10356932;28;20075;-56
2022/01/14 02:28:39;;;;;;;31.75;17.52;;;;;;;;;;10356735;28;20135;-54
2022/01/14 02:33:37;;;;;;;29.70;19.02;;;;;;;;;;10356722;28;20047;-54
2022/01/14 02:38:36;;;;;;;26.80;20.08;;;;;;;;;;10357091;28;20516;-55
2022/01/14 02:43:36;;;;;;;26.10;16.67;;;;;;;;;;10358682;28;20067;-54
2022/01/14 02:48:34;;;;;;;28.83;16.38;;;;;;;;;;10363182;28;20076;-56
2022/01/14 02:53:44;;;;;;;26.20;16.88;;;;;;;;;;10364870;28;20055;-55
2022/01/14 02:58:44;;;;;;;27.42;15.75;;;;;;;;;;10364329;28;20044;-56
2022/01/14 03:03:43;;;;;;;29.23;17.63;;;;;;;;;;10363953;28;20075;-52
2022/01/14 03:08:42;;;;;;;26.35;16.55;;;;;;;;;;10363790;28;20082;-55
2022/01/14 03:13:41;;;;;;;26.77;16.65;;;;;;;;;;10363726;28;20052;-52
2022/01/14 03:18:44;;;;;;;29.98;17.95;;;;;;;;;;10363464;28;20051;-54
2022/01/14 03:23:46;;;;;;;41.20;23.38;;;;;;;;;;10363289;28;20078;-55
2022/01/14 03:28:45;;;;;;;40.97;22.17;;;;;;;;;;10362949;28;20079;-52
2022/01/14 03:33:44;;;;;;;61.10;31.38;;;;;;;;;;10362802;28;20532;-54
2022/01/14 03:38:42;;;;;;;41.53;22.40;;;;;;;;;;10363514;28;20056;-53
2022/01/14 03:43:42;;;;;;;46.15;24.30;;;;;;;;;;10362372;28;20421;-54
2022/01/14 03:48:40;;;;;;;40.40;22.33;;;;;;;;;;10361826;28;20094;-54
2022/01/14 03:53:40;;;;;;;34.78;19.92;;;;;;;;;;10362101;28;20052;-55
2022/01/14 03:58:38;;;;;;;33.50;20.17;;;;;;;;;;10361694;28;20055;-55
2022/01/14 04:03:37;;;;;;;39.05;21.75;;;;;;;;;;10361164;28;20051;-56
2022/01/14 04:08:35;;;;;;;32.67;18.77;;;;;;;;;;10361669;28;20087;-52
2022/01/14 04:13:39;;;;;;;36.30;19.77;;;;;;;;;;10361288;28;20075;-54
2022/01/14 04:18:37;;;;;;;35.28;20.27;;;;;;;;;;10360973;28;20486;-54
2022/01/14 04:23:36;;;;;;;33.47;20.50;;;;;;;;;;10358658;28;20448;-57
2022/01/14 04:28:35;;;;;;;42.55;23.00;;;;;;;;;;10319537;28;20313;-54
2022/01/14 04:33:35;;;;;;;33.80;19.38;;;;;;;;;;10319747;28;20068;-53
2022/01/14 04:38:33;;;;;;;31.83;19.23;;;;;;;;;;10319142;28;20064;-57
2022/01/14 04:43:32;;;;;;;28.23;18.17;;;;;;;;;;10319011;28;20041;-57
2022/01/14 04:48:32;;;;;;;30.27;19.08;;;;;;;;;;10318047;28;20560;-56
2022/01/14 04:53:30;;;;;;;41.25;23.50;;;;;;;;;;10332483;28;20068;-56
2022/01/14 04:58:29;;;;;;;34.10;19.55;;;;;;;;;;10325310;28;20056;-54
2022/01/14 05:03:27;;;;;;;32.47;20.17;;;;;;;;;;10317562;28;20408;-57
2022/01/14 05:08:35;;;;;;;29.98;19.83;;;;;;;;;;10344860;28;20071;-56
2022/01/14 05:13:33;;;;;;;32.25;20.80;;;;;;;;;;10355268;28;20474;-51
2022/01/14 05:18:32;;;;;;;28.92;18.20;;;;;;;;;;10358451;28;20080;-52
2022/01/14 05:23:31;;;;;;;29.70;18.73;;;;;;;;;;10332122;28;20414;-54
2022/01/14 05:28:32;;;;;;;35.20;22.27;;;;;;;;;;10345070;28;20499;-52
2022/01/14 05:33:32;;;;;;;42.70;25.55;;;;;;;;;;10357965;28;20485;-54
2022/01/14 05:38:31;;;;;;;53.80;28.38;;;;;;;;;;10330332;28;20048;-57
2022/01/14 05:43:30;;;;;;;40.92;25.98;;;;;;;;;;10318789;28;20036;-56
2022/01/14 05:48:28;;;;;;;37.05;23.15;;;;;;;;;;10346738;28;20137;-54
2022/01/14 05:53:26;;;;;;;28.60;19.25;;;;;;;;;;10317206;28;20431;-51
2022/01/14 05:58:26;;;;;;;32.15;20.60;;;;;;;;;;10322961;28;20049;-56
2022/01/14 06:03:24;;;;;;;28.95;19.05;;;;;;;;;;10354220;28;20071;-55
2022/01/14 06:08:23;;;;;;;31.48;20.67;;;;;;;;;;10346095;28;20094;-54
2022/01/14 06:13:21;;;;;;;30.38;18.90;;;;;;;;;;10338524;28;20079;-56
2022/01/14 06:18:21;;;;;;;38.33;21.70;;;;;;;;;;10352738;28;20092;-54
2022/01/14 06:23:19;;;;;;;33.28;18.98;;;;;;;;;;10358296;28;20071;-54
2022/01/14 06:28:18;;;;;;;29.80;18.65;;;;;;;;;;10361080;28;20068;-54
2022/01/14 06:33:16;;;;;;;42.53;25.65;;;;;;;;;;10357334;28;20068;-54
2022/01/14 06:38:16;;;;;;;33.42;19.73;;;;;;;;;;10359449;28;20071;-55
2022/01/14 06:43:14;;;;;;;31.45;21.08;;;;;;;;;;10360125;28;20071;-57
2022/01/14 06:48:13;;;;;;;32.05;19.67;;;;;;;;;;10363025;28;20083;-51
2022/01/14 06:53:11;;;;;;;29.67;19.35;;;;;;;;;;10363296;28;20044;-56
2022/01/14 06:58:11;;;;;;;29.65;19.27;;;;;;;;;;10363145;28;20040;-55
2022/01/14 07:03:09;;;;;;;37.95;22.02;;;;;;;;;;10363127;28;20047;-55
2022/01/14 07:08:08;;;;;;;38.10;23.63;;;;;;;;;;10363270;28;20072;-54
2022/01/14 07:13:06;;;;;;;38.22;23.73;;;;;;;;;;10363203;28;20055;-54
2022/01/14 07:18:06;;;;;;;34.08;21.42;;;;;;;;;;10362009;28;20147;-56
2022/01/14 07:23:04;;;;;;;32.70;21.25;;;;;;;;;;10361965;28;20036;-55
2022/01/14 07:28:03;;;;;;;51.33;21.88;;;;;;;;;;10361978;28;20076;-53
2022/01/14 07:33:01;;;;;;;37.08;22.00;;;;;;;;;;10356561;28;20090;-58
2022/01/14 07:38:01;;;;;;;29.00;19.55;;;;;;;;;;10356605;28;20421;-58
2022/01/14 07:42:59;;;;;;;35.38;22.45;;;;;;;;;;10355225;28;20072;-54
2022/01/14 07:47:58;;;;;;;47.03;30.58;;;;;;;;;;10353731;28;20088;-56
2022/01/14 07:53:00;;;;;;;27.88;19.05;;;;;;;;;;10357809;28;20064;-54
2022/01/14 07:58:02;;;;;;;40.08;21.20;;;;;;;;;;10355297;28;20083;-56
2022/01/14 08:03:00;;;;;;;34.03;22.55;;;;;;;;;;10352987;28;20462;-56
2022/01/14 08:08:03;;;;;;;92.07;49.55;;;;;;;;;;10353327;28;20169;-56
2022/01/14 08:13:03;;;;;;;38.20;23.52;;;;;;;;;;10355367;28;20111;-56
2022/01/14 08:18:02;;;;;;;37.63;22.90;;;;;;;;;;10360565;28;20059;-55
2022/01/14 08:23:01;;;;;;;28.17;18.15;;;;;;;;;;10360340;28;20048;-55
2022/01/14 08:28:04;;;;;;;23.23;16.35;;;;;;;;;;10360028;28;20083;-56
2022/01/14 08:33:03;;;;;;;27.20;19.23;;;;;;;;;;10360374;28;20051;-56
2022/01/14 08:38:01;;;;;;;26.88;18.38;;;;;;;;;;10359715;28;20048;-52
2022/01/14 08:42:59;;;;;;;26.90;17.50;;;;;;;;;;10359525;28;20493;-57
2022/01/14 08:47:59;;;;;;;25.17;16.70;;;;;;;;;;10359168;28;20075;-55
2022/01/14 08:52:59;;;;;;;30.48;19.48;;;;;;;;;;10359257;28;20078;-56
2022/01/14 08:57:57;;;;;;;26.42;18.20;;;;;;;;;;10358964;28;20067;-55
2022/01/14 09:02:55;;;;;;;30.60;19.00;;;;;;;;;;10359243;28;20059;-55
2022/01/14 09:07:55;;;;;;;27.38;18.35;;;;;;;;;;10359084;28;20090;-56
2022/01/14 09:12:53;;;;;;;26.13;17.23;;;;;;;;;;10358448;28;20067;-55
2022/01/14 09:17:52;;;;;;;25.17;16.92;;;;;;;;;;10358135;28;20462;-54
2022/01/14 09:22:56;;;;;;;32.20;19.77;;;;;;;;;;10357970;28;20422;-56
2022/01/14 09:27:55;;;;;;;30.35;18.38;;;;;;;;;;10358566;28;20048;-55
2022/01/14 09:32:54;;;;;;;28.58;19.17;;;;;;;;;;10356730;28;20071;-56
2022/01/14 09:37:52;;;;;;;24.50;16.00;;;;;;;;;;10357081;28;20079;-55
2022/01/14 09:43:00;;;;;;;26.75;18.20;;;;;;;;;;10356665;28;20071;-56
2022/01/14 09:48:18;;;;;;;31.80;16.52;;;;;;;;;;10355431;28;20059;-57
2022/01/14 09:53:17;;;;;;;31.52;18.27;;;;;;;;;;10356241;28;20079;-54
2022/01/14 09:58:17;;;;;;;31.02;19.63;;;;;;;;;;10356198;28;20040;-54
2022/01/14 10:03:19;;;;;;;30.67;18.73;;;;;;;;;;10355023;28;20047;-54
2022/01/14 10:08:21;;;;;;;35.10;23.17;;;;;;;;;;10355387;28;20056;-56
2022/01/14 10:13:21;;;;;;;35.95;21.33;;;;;;;;;;10352891;28;20048;-55
2022/01/14 10:18:20;;;;;;;31.42;21.92;;;;;;;;;;10354553;28;20048;-51
2022/01/14 10:23:38;;;;;;;30.92;19.38;;;;;;;;;;10355758;28;20067;-53
2022/01/14 10:28:38;;;;;;;38.28;22.02;;;;;;;;;;10355321;28;20079;-55
2022/01/14 10:33:36;;;;;;;24.27;16.45;;;;;;;;;;10355223;28;20511;-52
2022/01/14 10:38:38;;;;;;;30.77;20.17;;;;;;;;;;10355325;28;20063;-55
2022/01/14 10:43:38;;;;;;;57.78;35.90;;;;;;;;;;10355717;28;20477;-55
2022/01/14 10:48:37;;;;;;;30.83;19.95;;;;;;;;;;10355903;28;20060;-56
2022/01/14 10:53:36;;;;;;;24.42;17.77;;;;;;;;;;10356010;28;20075;-55
2022/01/14 10:58:36;;;;;;;23.13;15.77;;;;;;;;;;10355892;28;20084;-56
2022/01/14 11:03:36;;;;;;;21.02;15.55;;;;;;;;;;10356073;28;20071;-54
2022/01/14 11:08:36;;;;;;;30.02;16.23;;;;;;;;;;10363611;28;20044;-54
2022/01/14 11:13:34;;;;;;;25.67;17.50;;;;;;;;;;10363846;28;20048;-55
2022/01/14 11:18:33;;;;;;;27.15;17.60;;;;;;;;;;10363442;28;20532;-56
2022/01/14 11:23:32;;;;;;;23.73;15.23;;;;;;;;;;10363146;28;20083;-53
2022/01/14 11:28:31;;;;;;;45.85;28.40;;;;;;;;;;10362874;28;20043;-53
2022/01/14 11:33:40;;;;;;;25.13;16.95;;;;;;;;;;10362667;28;20075;-54
2022/01/14 11:38:41;;;;;;;40.90;28.30;;;;;;;;;;10362452;28;20449;-56
2022/01/14 11:43:50;;;;;;;26.77;19.35;;;;;;;;;;10362338;28;20493;-54
2022/01/14 11:48:51;;;;;;;21.00;16.10;;;;;;;;;;10361913;28;20055;-55
2022/01/14 11:53:52;;;;;;;27.05;18.30;;;;;;;;;;10362648;28;20048;-51
2022/01/14 11:58:51;;;;;;;21.85;14.45;;;;;;;;;;10359981;28;20059;-52
2022/01/14 12:03:50;;;;;;;21.08;15.93;;;;;;;;;;10361280;28;20044;-56
2022/01/14 12:09:02;;;;;;;27.35;20.05;;;;;;;;;;10361472;28;20076;-54
2022/01/14 12:14:04;;;;;;;23.02;15.52;;;;;;;;;;10361095;28;20056;-54
2022/01/14 12:19:11;;;;;;;27.95;18.40;;;;;;;;;;10360204;28;20040;-54
2022/01/14 12:24:27;;;;;;;34.38;22.38;;;;;;;;;;10361148;28;20040;-56
2022/01/14 12:29:33;;;;;;;28.20;18.90;;;;;;;;;;10360195;28;20124;-55
2022/01/14 12:34:31;;;;;;;31.40;18.92;;;;;;;;;;10360418;28;20044;-55
2022/01/14 12:39:29;;;;;;;17.75;13.35;;;;;;;;;;10360288;28;20137;-56
2022/01/14 12:44:28;;;;;;;20.55;15.20;;;;;;;;;;10359971;28;20374;-55
2022/01/14 12:49:33;;;;;;;20.08;13.90;;;;;;;;;;10359148;28;20088;-53
2022/01/14 12:54:32;;;;;;;21.20;15.35;;;;;;;;;;10358681;28;20067;-56
2022/01/14 12:59:37;;;;;;;20.27;14.63;;;;;;;;;;10358897;28;20067;-53
2022/01/14 13:04:37;;;;;;;48.25;28.75;;;;;;;;;;10359434;28;20044;-56
2022/01/14 13:09:38;;;;;;;19.17;14.73;;;;;;;;;;10358848;28;20036;-55
2022/01/14 13:14:40;;;;;;;32.92;20.27;;;;;;;;;;10358635;28;20064;-53
2022/01/14 13:19:41;;;;;;;21.65;12.32;;;;;;;;;;10358486;28;20123;-56
2022/01/14 13:24:40;;;;;;;59.38;32.85;;;;;;;;;;10358421;28;20048;-56
2022/01/14 13:29:41;;;;;;;23.98;14.30;;;;;;;;;;10357252;28;20075;-56
2022/01/14 13:34:45;;;;;;;28.80;18.23;;;;;;;;;;10358709;28;20618;-55
2022/01/14 13:39:43;;;;;;;60.03;36.00;;;;;;;;;;10357924;28;20044;-56
2022/01/14 13:44:43;;;;;;;31.70;18.63;;;;;;;;;;10356226;28;20047;-55
2022/01/14 13:49:41;;;;;;;27.08;17.23;;;;;;;;;;10356429;28;20056;-55
2022/01/14 13:54:42;;;;;;;26.45;16.20;;;;;;;;;;10357421;28;20421;-56
2022/01/14 13:59:40;;;;;;;27.08;17.70;;;;;;;;;;10357345;28;20079;-56
2022/01/14 14:04:45;;;;;;;36.35;22.77;;;;;;;;;;10356596;28;20044;-54
2022/01/14 14:09:49;;;;;;;18.37;13.90;;;;;;;;;;10356207;28;20067;-56
2022/01/14 14:20:07;;;;;;;20.65;12.55;;;;;;;;;;10356944;28;20325;-56
2022/01/14 14:25:14;;;;;;;19.08;11.70;;;;;;;;;;10357177;28;20051;-55
2022/01/14 14:30:13;;;;;;;22.15;13.82;;;;;;;;;;10356168;28;20093;-56
2022/01/14 14:35:14;;;;;;;20.08;14.57;;;;;;;;;;10355904;28;20048;-56
2022/01/14 14:40:18;;;;;;;13.80;9.77;;;;;;;;;;10359754;28;20075;-56
2022/01/14 14:45:16;;;;;;;25.80;18.23;;;;;;;;;;10364850;28;20040;-56
2022/01/14 14:50:16;;;;;;;35.58;22.13;;;;;;;;;;10363837;28;20056;-53
2022/01/14 14:55:18;;;;;;;43.60;28.17;;;;;;;;;;10364984;28;20071;-53
2022/01/14 15:00:19;;;;;;;33.28;23.83;;;;;;;;;;10364530;28;20050;-55
2022/01/14 15:05:18;;;;;;;30.63;21.73;;;;;;;;;;10363924;28;20051;-56
2022/01/14 15:10:18;;;;;;;28.15;19.95;;;;;;;;;;10363571;28;20412;-55
2022/01/14 15:15:21;;;;;;;33.97;21.33;;;;;;;;;;10363643;28;20048;-54
2022/01/14 15:20:20;;;;;;;61.20;35.97;;;;;;;;;;10363156;28;20048;-56
2022/01/14 15:25:20;;;;;;;59.63;36.00;;;;;;;;;;10363275;28;20071;-54
2022/01/14 15:30:20;;;;;;;35.00;23.35;;;;;;;;;;10362567;28;20076;-53
2022/01/14 15:35:18;;;;;;;33.25;21.10;;;;;;;;;;10362175;28;20473;-52
2022/01/14 15:40:22;;;;;;;26.45;17.52;;;;;;;;;;10362653;28;20102;-56
2022/01/14 15:45:21;;;;;;;36.65;22.38;;;;;;;;;;10362310;28;20044;-55
2022/01/14 15:50:20;;;;;;;21.50;15.65;;;;;;;;;;10360180;28;20090;-55
2022/01/14 15:55:18;;;;;;;37.25;24.23;;;;;;;;;;10345252;28;20076;-52
2022/01/14 16:00:17;;;;;;;53.38;31.52;;;;;;;;;;10340933;28;20064;-56
2022/01/14 16:05:17;;;;;;;35.40;22.65;;;;;;;;;;10320549;28;20087;-57
2022/01/14 16:10:15;;;;;;;46.25;25.58;;;;;;;;;;10320071;28;20045;-56
2022/01/14 16:15:14;;;;;;;23.55;16.42;;;;;;;;;;10319712;28;20087;-54
2022/01/14 16:20:13;;;;;;;14.63;11.68;;;;;;;;;;10319638;28;20090;-54
2022/01/14 16:25:13;;;;;;;19.58;13.45;;;;;;;;;;10327631;28;20060;-51
2022/01/14 16:30:13;;;;;;;19.00;14.23;;;;;;;;;;10337990;28;20078;-51
2022/01/14 16:35:12;;;;;;;17.27;12.30;;;;;;;;;;10338852;28;20063;-56
2022/01/14 16:40:11;;;;;;;22.08;15.95;;;;;;;;;;10334046;28;20068;-52
2022/01/14 16:45:11;;;;;;;16.48;12.23;;;;;;;;;;10329311;28;20032;-53
2022/01/14 16:50:10;;;;;;;15.45;11.40;;;;;;;;;;10350581;28;20076;-54
2022/01/14 16:55:09;;;;;;;78.50;42.45;;;;;;;;;;10359290;28;20083;-55
2022/01/14 17:00:10;;;;;;;18.75;12.15;;;;;;;;;;10351779;28;20127;-56
2022/01/14 17:05:11;;;;;;;35.60;22.50;;;;;;;;;;10322614;28;20088;-54
2022/01/14 17:10:09;;;;;;;31.70;20.67;;;;;;;;;;10318124;28;20068;-55
2022/01/14 17:15:08;;;;;;;34.10;22.00;;;;;;;;;;10317460;28;20087;-55
2022/01/14 17:20:07;;;;;;;36.75;23.65;;;;;;;;;;10317365;28;20146;-56
2022/01/14 17:25:08;;;;;;;22.23;16.55;;;;;;;;;;10325935;28;20068;-53
2022/01/14 17:30:09;;;;;;;20.92;14.38;;;;;;;;;;10336955;28;20106;-54
2022/01/14 17:35:09;;;;;;;24.98;16.10;;;;;;;;;;10328409;28;20076;-55
2022/01/14 17:40:09;;;;;;;25.67;13.05;;;;;;;;;;10336262;28;20407;-55
2022/01/14 17:45:08;;;;;;;22.45;16.10;;;;;;;;;;10337410;28;20040;-52
2022/01/14 17:50:07;;;;;;;24.42;16.10;;;;;;;;;;10334975;28;20493;-54
2022/01/14 17:55:06;;;;;;;31.15;20.15;;;;;;;;;;10330874;28;20118;-56
2022/01/14 18:00:07;;;;;;;34.92;20.85;;;;;;;;;;10330840;28;20090;-54
2022/01/14 18:05:07;;;;;;;25.10;15.07;;;;;;;;;;10329656;28;20045;-57
2022/01/14 18:10:06;;;;;;;22.67;16.00;;;;;;;;;;10329981;28;20083;-54
2022/01/14 18:15:08;;;;;;;21.23;14.63;;;;;;;;;;10333587;28;20520;-56
2022/01/14 18:20:08;;;;;;;23.83;16.60;;;;;;;;;;10330914;28;20136;-56
2022/01/14 18:25:07;;;;;;;27.73;18.17;;;;;;;;;;10345173;28;20068;-56
2022/01/14 18:30:08;;;;;;;18.20;13.38;;;;;;;;;;10325424;28;20071;-54
2022/01/14 18:35:07;;;;;;;22.80;17.20;;;;;;;;;;10324144;28;20072;-56
2022/01/14 18:40:06;;;;;;;22.05;12.85;;;;;;;;;;10328606;28;20072;-54
2022/01/14 18:45:18;;;;;;;29.67;17.90;;;;;;;;;;10328315;28;20075;-54
2022/01/14 18:50:18;;;;;;;58.72;30.42;;;;;;;;;;10334328;28;20086;-55
2022/01/14 18:55:16;;;;;;;51.03;28.88;;;;;;;;;;10330330;28;20071;-54
2022/01/14 19:00:15;;;;;;;28.60;17.90;;;;;;;;;;10325038;28;20419;-55
2022/01/14 19:05:13;;;;;;;28.20;17.77;;;;;;;;;;10330339;28;20079;-55
2022/01/14 19:10:15;;;;;;;22.80;13.95;;;;;;;;;;10328736;28;20075;-54
2022/01/14 19:15:14;;;;;;;28.65;18.17;;;;;;;;;;10323418;28;20470;-57
2022/01/14 19:20:13;;;;;;;34.42;22.55;;;;;;;;;;10334020;28;20463;-56
2022/01/14 19:25:13;;;;;;;29.23;17.95;;;;;;;;;;10343021;28;20044;-53
2022/01/14 19:30:11;;;;;;;19.65;13.55;;;;;;;;;;10348535;28;20060;-58
2022/01/14 19:35:10;;;;;;;21.80;16.05;;;;;;;;;;10339204;28;20075;-57
2022/01/14 19:40:09;;;;;;;22.05;15.70;;;;;;;;;;10347698;28;20064;-57
2022/01/14 19:45:09;;;;;;;68.68;30.95;;;;;;;;;;10327552;28;20070;-55
2022/01/14 19:50:09;;;;;;;22.83;13.75;;;;;;;;;;10335272;28;20074;-55
2022/01/14 19:55:10;;;;;;;30.08;17.45;;;;;;;;;;10332578;28;20068;-56
2022/01/14 20:00:11;;;;;;;24.77;14.07;;;;;;;;;;10326959;28;20611;-49
2022/01/14 20:05:13;;;;;;;32.75;20.48;;;;;;;;;;10335942;28;20130;-53
2022/01/14 20:10:11;;;;;;;26.42;17.92;;;;;;;;;;10332035;28;20056;-55
2022/01/14 20:15:13;;;;;;;24.65;15.82;;;;;;;;;;10329561;28;20144;-55
2022/01/14 20:20:13;;;;;;;17.13;13.45;;;;;;;;;;10334643;28;20067;-56
2022/01/14 20:25:12;;;;;;;29.05;17.90;;;;;;;;;;10337344;28;20087;-51
2022/01/14 20:30:13;;;;;;;20.35;15.07;;;;;;;;;;10332128;28;20497;-54
2022/01/14 20:35:11;;;;;;;45.92;27.75;;;;;;;;;;10328940;28;20075;-54
2022/01/14 20:40:11;;;;;;;31.60;21.90;;;;;;;;;;10321487;28;20099;-53
2022/01/14 20:45:14;;;;;;;31.20;19.48;;;;;;;;;;10338975;28;20060;-52
2022/01/14 20:50:14;;;;;;;31.48;19.00;;;;;;;;;;10333238;28;20122;-52
2022/01/14 20:55:13;;;;;;;23.50;16.77;;;;;;;;;;10334023;28;20068;-57
2022/01/14 21:00:12;;;;;;;24.58;16.08;;;;;;;;;;10336036;28;20068;-53
2022/01/14 21:05:13;;;;;;;32.85;18.42;;;;;;;;;;10327184;28;20040;-52
2022/01/14 21:10:13;;;;;;;30.95;19.60;;;;;;;;;;10328114;28;20072;-52
2022/01/14 21:15:12;;;;;;;25.05;16.58;;;;;;;;;;10329772;28;20079;-54
2022/01/14 21:20:11;;;;;;;34.92;21.05;;;;;;;;;;10324476;28;20078;-54
2022/01/14 21:25:11;;;;;;;31.17;18.23;;;;;;;;;;10336811;28;20457;-54
2022/01/14 21:30:12;;;;;;;31.27;18.80;;;;;;;;;;10330810;28;20064;-55
2022/01/14 21:35:10;;;;;;;32.03;19.55;;;;;;;;;;10314836;28;20072;-57
2022/01/14 21:40:14;;;;;;;55.22;27.48;;;;;;;;;;10315103;28;20142;-56
2022/01/14 21:45:14;;;;;;;40.38;20.45;;;;;;;;;;10324589;28;20094;-53
2022/01/14 21:50:13;;;;;;;26.00;15.48;;;;;;;;;;10323871;28;20083;-55
2022/01/14 21:55:15;;;;;;;22.60;14.43;;;;;;;;;;10328027;28;20102;-56
2022/01/14 22:00:16;;;;;;;55.60;30.65;;;;;;;;;;10333031;28;20150;-55
2022/01/14 22:05:15;;;;;;;29.58;19.90;;;;;;;;;;10314475;28;20087;-56
2022/01/14 22:10:14;;;;;;;18.88;12.93;;;;;;;;;;10313864;28;20056;-55
2022/01/14 22:15:16;;;;;;;22.08;17.33;;;;;;;;;;10315180;28;20744;-56
2022/01/14 22:20:16;;;;;;;23.75;16.58;;;;;;;;;;10327983;28;20071;-55
2022/01/14 22:25:17;;;;;;;20.13;14.77;;;;;;;;;;10322741;28;20079;-56
2022/01/14 22:30:15;;;;;;;21.42;14.55;;;;;;;;;;10324683;28;20060;-54
2022/01/14 22:35:16;;;;;;;29.55;18.48;;;;;;;;;;10316386;28;20071;-55
2022/01/14 22:40:15;;;;;;;23.33;16.00;;;;;;;;;;10333498;28;20468;-55
2022/01/14 22:45:15;;;;;;;24.17;16.23;;;;;;;;;;10323612;28;20068;-57
2022/01/14 22:50:14;;;;;;;21.08;16.38;;;;;;;;;;10350006;28;20076;-52
2022/01/14 22:55:13;;;;;;;23.98;13.90;;;;;;;;;;10332789;28;20095;-56
2022/01/14 23:00:13;;;;;;;21.25;14.27;;;;;;;;;;10338997;28;20060;-56
2022/01/14 23:05:14;;;;;;;38.67;21.65;;;;;;;;;;10355745;28;20059;-56
2022/01/14 23:10:14;;;;;;;27.45;19.27;;;;;;;;;;10322606;28;20063;-57
2022/01/14 23:15:13;;;;;;;25.25;17.98;;;;;;;;;;10322529;28;20076;-56
2022/01/14 23:20:12;;;;;;;25.50;17.45;;;;;;;;;;10321243;28;20095;-54
2022/01/14 23:25:12;;;;;;;26.35;17.77;;;;;;;;;;10323715;28;20433;-55
2022/01/14 23:30:13;;;;;;;22.90;15.40;;;;;;;;;;10363030;28;20456;-56
2022/01/14 23:35:12;;;;;;;27.65;18.17;;;;;;;;;;10363603;28;20083;-55
2022/01/14 23:40:12;;;;;;;25.83;15.77;;;;;;;;;;10363236;28;20082;-54
2022/01/14 23:45:25;;;;;;;26.45;17.42;;;;;;;;;;10361417;28;20316;-55
2022/01/14 23:50:25;;;;;;;27.15;16.27;;;;;;;;;;10362045;28;20056;-54
2022/01/14 23:55:25;;;;;;;21.30;15.02;;;;;;;;;;10362452;28;20076;-57
